Time;durP1;ratioP1;P1;durP2;ratioP2;P2;SDS_P1;SDS_P2;PMS_P1;PMS_P2;Temp;Humidity;BMP_temperature;BMP_pressure;BME280_temperature;BME280_humidity;BME280_pressure;Samples;Min_cycle;Max_cycle;Signal;HPM_P1;HPM_P2
2023/09/05 00:00:47;;;;;;;7.57;2.50;;;36.40;38.10;;;;;;5029080;28;20108;-65
2023/09/05 00:03:16;;;;;;;8.43;2.38;;;36.30;38.40;;;;;;5028467;28;20091;-64
2023/09/05 00:05:42;;;;;;;5.95;2.05;;;36.10;38.90;;;;;;5024188;28;20021;-66
2023/09/05 00:08:10;;;;;;;7.65;2.25;;;36.10;38.80;;;;;;5025263;28;20437;-68
2023/09/05 00:10:36;;;;;;;11.70;2.75;;;36.00;39.40;;;;;;5020725;28;20018;-66
2023/09/05 00:13:06;;;;;;;5.18;2.33;;;35.90;39.80;;;;;;5023654;28;20006;-64
2023/09/05 00:15:32;;;;;;;7.28;2.30;;;35.90;39.60;;;;;;5027342;28;20574;-65
2023/09/05 00:17:58;;;;;;;9.85;2.20;;;35.80;40.00;;;;;;5027194;28;20021;-66
2023/09/05 00:20:26;;;;;;;15.77;2.70;;;35.70;40.40;;;;;;5024841;28;20044;-66
2023/09/05 00:22:53;;;;;;;13.57;2.65;;;35.60;40.60;;;;;;5027229;28;20056;-68
2023/09/05 00:25:19;;;;;;;10.40;2.45;;;35.60;40.40;;;;;;5025881;28;20029;-66
2023/09/05 00:27:46;;;;;;;11.27;2.55;;;35.50;40.60;;;;;;5026826;28;20492;-67
2023/09/05 00:30:14;;;;;;;6.60;2.60;;;35.40;40.70;;;;;;5027535;28;20108;-63
2023/09/05 00:32:40;;;;;;;6.32;2.53;;;35.50;40.80;;;;;;5019502;28;20021;-64
2023/09/05 00:35:07;;;;;;;6.05;2.60;;;35.40;40.80;;;;;;5024047;28;20017;-66
2023/09/05 00:37:34;;;;;;;5.90;2.00;;;35.30;40.90;;;;;;5022588;28;20100;-67
2023/09/05 00:40:00;;;;;;;10.40;2.40;;;35.20;40.90;;;;;;5024072;28;20009;-66
2023/09/05 00:42:27;;;;;;;9.60;2.97;;;35.20;41.30;;;;;;5025732;28;20021;-64
2023/09/05 00:44:55;;;;;;;8.82;3.30;;;35.20;41.20;;;;;;5027019;28;20075;-64
2023/09/05 00:47:28;;;;;;;10.68;2.70;;;35.20;41.50;;;;;;5026100;28;20061;-61
2023/09/05 00:49:55;;;;;;;6.22;2.55;;;35.00;41.60;;;;;;5023540;28;20049;-63
2023/09/05 00:52:24;;;;;;;6.40;2.60;;;35.00;41.80;;;;;;5024812;28;20013;-64
2023/09/05 00:54:51;;;;;;;14.27;3.70;;;35.00;41.90;;;;;;5016750;28;20064;-67
2023/09/05 00:57:17;;;;;;;10.60;2.78;;;34.90;42.00;;;;;;5019048;28;20520;-63
2023/09/05 00:59:44;;;;;;;10.90;2.90;;;34.90;42.20;;;;;;5018725;28;20588;-64
2023/09/05 01:02:11;;;;;;;15.75;2.95;;;34.80;42.00;;;;;;5020306;28;20025;-66
2023/09/05 01:04:38;;;;;;;8.15;2.70;;;34.80;42.30;;;;;;5025303;28;20097;-66
2023/09/05 01:07:13;;;;;;;6.35;2.40;;;34.80;42.10;;;;;;5020274;28;20018;-62
2023/09/05 01:09:39;;;;;;;51.03;5.10;;;34.70;42.40;;;;;;5018101;28;20018;-62
2023/09/05 01:12:07;;;;;;;13.57;2.55;;;34.60;42.70;;;;;;5015365;28;20013;-61
2023/09/05 01:14:34;;;;;;;12.82;2.65;;;34.60;42.40;;;;;;5005504;28;21521;-60
2023/09/05 01:17:05;;;;;;;8.10;2.80;;;34.60;42.10;;;;;;5024264;28;20501;-62
2023/09/05 01:19:36;;;;;;;5.60;2.58;;;34.50;42.30;;;;;;5022887;28;20024;-61
2023/09/05 01:22:30;;;;;;;11.18;2.63;;;34.40;43.30;;;;;;5021522;28;20017;-63
2023/09/05 01:24:57;;;;;;;8.00;2.45;;;34.40;42.40;;;;;;5023861;28;20379;-63
2023/09/05 01:27:26;;;;;;;7.18;2.83;;;34.30;42.80;;;;;;5020483;28;20115;-63
2023/09/05 01:29:55;;;;;;;11.02;2.80;;;34.30;42.60;;;;;;5022593;28;20072;-65
2023/09/05 01:35:11;;;;;;;9.40;2.95;;;34.10;41.80;;;;;;5023381;28;20033;-61
2023/09/05 01:37:37;;;;;;;8.63;2.40;;;34.00;42.70;;;;;;5023363;28;20018;-61
2023/09/05 01:40:09;;;;;;;5.38;2.08;;;34.00;42.50;;;;;;5016485;28;20061;-61
2023/09/05 01:42:36;;;;;;;10.70;2.80;;;33.90;42.90;;;;;;5017875;28;20022;-62
2023/09/05 01:45:02;;;;;;;10.30;2.60;;;33.90;42.50;;;;;;5018764;28;20084;-61
2023/09/05 01:47:29;;;;;;;10.55;2.95;;;33.80;41.80;;;;;;5016648;28;20061;-62
2023/09/05 01:49:55;;;;;;;6.30;2.40;;;33.70;41.60;;;;;;5018236;28;20068;-61
2023/09/05 01:52:22;;;;;;;7.90;2.55;;;33.70;42.30;;;;;;5017279;28;20018;-62
2023/09/05 01:54:48;;;;;;;10.02;2.17;;;33.60;41.70;;;;;;5019192;28;20037;-61
2023/09/05 01:57:15;;;;;;;7.35;2.10;;;33.50;41.30;;;;;;5036262;28;20079;-61
2023/09/05 01:59:41;;;;;;;9.30;2.38;;;33.50;41.80;;;;;;5017914;28;20025;-60
2023/09/05 02:02:08;;;;;;;7.35;2.83;;;33.40;40.90;;;;;;5021356;28;20371;-61
2023/09/05 02:04:34;;;;;;;8.23;2.20;;;33.30;41.10;;;;;;5017905;28;20101;-61
2023/09/05 02:07:00;;;;;;;6.45;2.50;;;33.30;40.50;;;;;;5016608;28;20040;-63
2023/09/05 02:09:27;;;;;;;12.65;5.22;;;33.30;41.20;;;;;;5018051;28;20037;-62
2023/09/05 02:11:53;;;;;;;8.98;3.00;;;33.20;41.50;;;;;;5017749;28;20013;-59
2023/09/05 02:14:20;;;;;;;13.85;9.48;;;33.10;41.20;;;;;;5019556;28;20010;-64
2023/09/05 02:16:46;;;;;;;11.13;2.45;;;33.10;41.60;;;;;;5019375;28;20101;-60
2023/09/05 02:19:13;;;;;;;13.38;2.67;;;33.00;41.20;;;;;;5020410;28;20029;-59
2023/09/05 02:21:39;;;;;;;16.55;3.05;;;32.90;42.10;;;;;;5014924;28;20014;-60
2023/09/05 02:24:06;;;;;;;11.00;3.45;;;32.80;42.90;;;;;;5031420;28;20544;-59
2023/09/05 02:26:32;;;;;;;6.28;2.53;;;32.80;43.20;;;;;;5022530;28;20066;-56
2023/09/05 02:28:59;;;;;;;14.70;2.60;;;32.70;44.00;;;;;;5022020;28;20096;-62
2023/09/05 02:31:25;;;;;;;12.57;2.58;;;32.60;44.20;;;;;;5020088;28;20442;-63
2023/09/05 02:33:52;;;;;;;6.60;2.97;;;32.50;44.90;;;;;;5023807;28;20072;-59
2023/09/05 02:36:19;;;;;;;15.70;3.30;;;32.50;45.60;;;;;;5018976;28;20052;-62
2023/09/05 02:38:46;;;;;;;10.85;3.00;;;32.40;45.50;;;;;;5023574;28;20025;-61
2023/09/05 02:41:13;;;;;;;15.00;2.85;;;32.30;45.60;;;;;;5023263;28;20023;-60
2023/09/05 02:43:40;;;;;;;13.75;2.88;;;32.20;46.00;;;;;;5022256;28;20027;-62
2023/09/05 02:46:08;;;;;;;14.80;3.15;;;32.10;46.30;;;;;;5021423;28;20390;-62
2023/09/05 02:48:43;;;;;;;12.25;2.83;;;32.00;46.90;;;;;;5023269;28;20485;-62
2023/09/05 02:51:11;;;;;;;20.27;3.95;;;31.90;47.00;;;;;;5020748;28;20021;-61
2023/09/05 02:53:38;;;;;;;23.73;3.75;;;31.90;46.90;;;;;;5021916;28;20022;-60
2023/09/05 02:56:05;;;;;;;23.33;3.72;;;31.80;47.10;;;;;;5024679;28;20108;-59
2023/09/05 02:58:32;;;;;;;23.38;4.05;;;31.70;47.80;;;;;;5022878;28;20099;-63
2023/09/05 03:01:03;;;;;;;15.57;3.72;;;31.70;48.00;;;;;;5026179;28;20041;-63
2023/09/05 03:03:30;;;;;;;19.90;4.03;;;31.60;48.30;;;;;;5022252;28;20434;-62
2023/09/05 03:05:57;;;;;;;21.58;4.20;;;31.60;48.40;;;;;;5024598;28;20037;-61
2023/09/05 03:08:24;;;;;;;26.50;4.63;;;31.50;48.90;;;;;;5023776;28;20021;-61
2023/09/05 03:10:52;;;;;;;18.38;4.45;;;31.40;49.00;;;;;;5028372;28;20005;-63
2023/09/05 03:13:19;;;;;;;12.48;4.03;;;31.40;48.80;;;;;;5029925;28;20096;-62
2023/09/05 03:15:49;;;;;;;20.13;4.30;;;31.30;49.10;;;;;;5027730;28;20405;-65
2023/09/05 03:18:16;;;;;;;17.58;4.43;;;31.20;49.60;;;;;;5029730;28;20022;-64
2023/09/05 03:20:42;;;;;;;18.10;3.75;;;31.20;49.70;;;;;;5020387;28;20017;-64
2023/09/05 03:23:08;;;;;;;27.17;5.13;;;31.10;50.40;;;;;;5021062;28;20017;-65
2023/09/05 03:25:35;;;;;;;31.75;4.93;;;31.10;50.50;;;;;;5020174;28;20521;-64
2023/09/05 03:28:01;;;;;;;19.23;4.65;;;31.00;50.70;;;;;;5020917;28;20064;-64
2023/09/05 03:30:27;;;;;;;24.52;4.80;;;30.90;51.00;;;;;;5022160;28;20025;-65
2023/09/05 03:32:54;;;;;;;26.42;4.45;;;30.80;50.80;;;;;;5028303;28;20018;-61
2023/09/05 03:35:21;;;;;;;26.38;5.47;;;30.80;51.10;;;;;;5029385;28;20147;-61
2023/09/05 03:37:47;;;;;;;25.05;4.72;;;30.70;51.40;;;;;;5025579;28;20022;-62
2023/09/05 03:40:14;;;;;;;24.50;4.97;;;30.70;51.20;;;;;;5022599;28;20155;-62
2023/09/05 03:42:40;;;;;;;19.67;4.70;;;30.60;51.20;;;;;;5022371;28;20076;-58
2023/09/05 03:45:08;;;;;;;23.30;4.88;;;30.60;51.70;;;;;;5022545;28;20018;-62
2023/09/05 03:47:34;;;;;;;29.30;5.65;;;30.60;51.60;;;;;;5021790;28;20164;-61
2023/09/05 03:50:01;;;;;;;17.42;5.38;;;30.50;51.70;;;;;;5020354;28;20021;-62
2023/09/05 03:52:27;;;;;;;25.60;5.80;;;30.50;52.10;;;;;;5024827;28;20014;-62
2023/09/05 03:54:53;;;;;;;22.20;6.22;;;30.50;52.00;;;;;;5026159;28;20037;-63
2023/09/05 03:57:20;;;;;;;28.25;6.45;;;30.40;52.10;;;;;;5020598;28;20102;-57
2023/09/05 03:59:46;;;;;;;22.48;8.05;;;30.40;52.30;;;;;;5021982;28;20021;-59
2023/09/05 04:02:13;;;;;;;38.20;10.68;;;30.40;52.40;;;;;;5024056;28;20029;-62
2023/09/05 04:04:39;;;;;;;36.17;10.50;;;30.30;52.70;;;;;;5023589;28;20021;-61
2023/09/05 04:07:07;;;;;;;31.83;10.68;;;30.30;53.20;;;;;;5026680;28;20018;-62
2023/09/05 04:09:33;;;;;;;32.88;11.20;;;30.30;53.80;;;;;;5021168;28;20024;-60
2023/09/05 04:11:59;;;;;;;39.47;13.15;;;30.20;54.30;;;;;;5019724;28;20029;-60
2023/09/05 04:14:26;;;;;;;31.65;13.38;;;30.20;54.10;;;;;;5020642;28;20010;-62
2023/09/05 04:16:53;;;;;;;35.22;14.13;;;30.10;54.50;;;;;;5027055;28;20065;-60
2023/09/05 04:19:19;;;;;;;41.10;13.48;;;30.10;55.20;;;;;;5027609;28;20022;-59
2023/09/05 04:21:46;;;;;;;33.65;10.93;;;30.10;55.20;;;;;;5025644;28;20021;-62
2023/09/05 04:24:12;;;;;;;37.85;10.10;;;30.00;55.10;;;;;;5027441;28;20040;-65
2023/09/05 04:26:39;;;;;;;38.92;10.55;;;29.90;55.10;;;;;;5022802;28;20026;-60
2023/09/05 04:29:05;;;;;;;37.55;9.85;;;29.90;55.60;;;;;;5019785;28;20021;-62
2023/09/05 04:31:32;;;;;;;44.15;12.20;;;29.90;56.00;;;;;;5018411;28;20018;-61
2023/09/05 04:33:58;;;;;;;48.03;13.10;;;29.80;55.80;;;;;;5022599;28;20030;-61
2023/09/05 04:36:25;;;;;;;47.95;11.20;;;29.80;55.20;;;;;;5018715;28;20024;-60
2023/09/05 04:38:52;;;;;;;40.42;9.80;;;29.70;54.60;;;;;;5024120;28;20113;-63
2023/09/05 04:41:20;;;;;;;42.15;9.25;;;29.80;55.80;;;;;;5026634;28;20025;-61
2023/09/05 04:43:47;;;;;;;36.05;8.65;;;29.80;55.10;;;;;;5027354;28;20134;-62
2023/09/05 04:46:14;;;;;;;47.25;8.82;;;29.80;55.20;;;;;;5019235;28;20112;-60
2023/09/05 04:48:40;;;;;;;45.10;9.48;;;29.80;54.60;;;;;;5025269;28;20135;-62
2023/09/05 04:51:07;;;;;;;31.77;7.88;;;29.80;55.10;;;;;;5027505;28;20014;-65
2023/09/05 04:53:33;;;;;;;29.60;8.05;;;29.80;55.30;;;;;;5019127;28;20048;-60
2023/09/05 04:56:00;;;;;;;31.77;8.02;;;29.80;56.40;;;;;;5026157;28;20056;-63
2023/09/05 04:58:29;;;;;;;24.25;7.30;;;29.70;55.90;;;;;;5025778;28;20013;-64
2023/09/05 05:01:02;;;;;;;31.95;7.40;;;29.70;55.80;;;;;;5026902;28;20017;-62
2023/09/05 05:03:34;;;;;;;35.17;8.68;;;29.70;56.60;;;;;;5020979;28;20046;-61
2023/09/05 05:06:02;;;;;;;31.73;8.88;;;29.60;56.00;;;;;;5020594;28;20047;-65
2023/09/05 05:08:29;;;;;;;39.58;8.07;;;29.60;56.10;;;;;;5024356;28;20059;-63
2023/09/05 05:10:56;;;;;;;28.15;8.18;;;29.60;56.20;;;;;;5025999;28;20377;-63
2023/09/05 05:13:22;;;;;;;32.00;8.45;;;29.50;56.20;;;;;;5022627;28;20009;-62
2023/09/05 05:15:48;;;;;;;32.85;8.82;;;29.50;57.30;;;;;;5016967;28;20028;-63
2023/09/05 05:18:15;;;;;;;46.70;9.77;;;29.50;58.20;;;;;;5024755;28;20020;-64
2023/09/05 05:20:42;;;;;;;54.67;10.10;;;29.50;57.40;;;;;;5017126;28;20101;-64
2023/09/05 05:23:17;;;;;;;31.77;8.70;;;29.50;57.20;;;;;;5020090;28;20423;-67
2023/09/05 05:25:43;;;;;;;26.60;7.88;;;29.40;57.40;;;;;;5020993;28;20088;-63
2023/09/05 05:28:10;;;;;;;29.90;6.97;;;29.40;57.90;;;;;;5024834;28;20022;-62
2023/09/05 05:30:37;;;;;;;24.42;6.65;;;29.40;57.40;;;;;;5024739;28;20018;-64
2023/09/05 05:33:04;;;;;;;26.58;7.03;;;29.40;57.50;;;;;;5017613;28;20018;-63
2023/09/05 05:35:31;;;;;;;35.03;10.15;;;29.40;57.80;;;;;;5021199;28;20014;-62
2023/09/05 05:37:57;;;;;;;53.08;20.65;;;29.30;57.40;;;;;;5024328;28;20063;-64
2023/09/05 05:40:23;;;;;;;56.63;21.98;;;29.30;57.50;;;;;;5020432;28;20099;-61
2023/09/05 05:42:50;;;;;;;42.30;16.63;;;29.30;57.60;;;;;;5024418;28;20460;-63
2023/09/05 05:45:16;;;;;;;33.35;14.07;;;29.30;57.60;;;;;;5021476;28;20060;-62
2023/09/05 05:47:43;;;;;;;36.50;12.85;;;29.30;57.90;;;;;;5020765;28;20094;-64
2023/09/05 05:50:09;;;;;;;34.95;10.70;;;29.30;59.90;;;;;;5019792;28;20063;-61
2023/09/05 05:52:38;;;;;;;33.35;8.60;;;29.20;59.40;;;;;;5021183;28;20117;-63
2023/09/05 05:55:06;;;;;;;33.60;9.57;;;29.10;59.70;;;;;;5021642;28;20410;-62
2023/09/05 05:57:32;;;;;;;25.63;8.77;;;29.10;59.70;;;;;;5021114;28;20057;-63
2023/09/05 05:59:59;;;;;;;30.55;9.38;;;29.00;59.50;;;;;;5021249;28;21189;-62
2023/09/05 06:02:25;;;;;;;32.42;10.70;;;28.90;59.70;;;;;;5027038;28;20112;-62
2023/09/05 06:04:51;;;;;;;39.35;11.35;;;28.90;59.30;;;;;;5019526;28;20060;-63
2023/09/05 06:07:18;;;;;;;26.17;9.45;;;28.90;58.30;;;;;;5030307;28;20478;-62
2023/09/05 06:09:44;;;;;;;31.90;9.82;;;28.90;59.80;;;;;;5029915;28;20076;-63
2023/09/05 06:12:11;;;;;;;28.17;9.15;;;28.80;59.10;;;;;;5030722;28;20420;-62
2023/09/05 06:14:37;;;;;;;31.33;9.40;;;28.70;60.10;;;;;;5030459;28;20136;-62
2023/09/05 06:17:04;;;;;;;34.92;9.77;;;28.70;59.90;;;;;;5027507;28;20115;-64
2023/09/05 06:19:30;;;;;;;27.05;9.55;;;28.60;60.40;;;;;;5029804;28;20070;-62
2023/09/05 06:21:58;;;;;;;28.17;10.88;;;28.60;60.20;;;;;;5019225;28;20070;-65
2023/09/05 06:24:25;;;;;;;58.83;35.38;;;28.60;60.60;;;;;;5025324;28;20140;-61
2023/09/05 06:26:51;;;;;;;44.45;24.77;;;28.60;61.70;;;;;;5029317;28;20070;-62
2023/09/05 06:29:18;;;;;;;39.28;17.80;;;28.50;62.40;;;;;;5023425;28;20106;-65
2023/09/05 06:31:48;;;;;;;34.47;9.85;;;28.50;61.20;;;;;;5025116;28;20050;-63
2023/09/05 06:34:15;;;;;;;22.42;8.20;;;28.50;60.80;;;;;;5031866;28;20063;-62
2023/09/05 06:36:42;;;;;;;30.02;8.52;;;28.40;60.60;;;;;;5030379;28;20058;-63
2023/09/05 06:39:08;;;;;;;31.15;9.05;;;28.40;61.30;;;;;;5021884;28;20129;-63
2023/09/05 06:41:35;;;;;;;38.90;9.55;;;28.40;61.50;;;;;;5022498;28;20054;-62
2023/09/05 06:44:01;;;;;;;49.35;10.85;;;28.40;61.40;;;;;;5026777;28;20131;-62
2023/09/05 06:46:28;;;;;;;44.50;10.30;;;28.30;61.20;;;;;;5028702;28;20536;-63
2023/09/05 06:48:54;;;;;;;35.13;10.25;;;28.30;62.00;;;;;;5030035;28;20058;-61
2023/09/05 06:51:21;;;;;;;43.80;9.80;;;28.20;62.50;;;;;;5030081;28;20048;-63
2023/09/05 06:53:47;;;;;;;43.90;9.93;;;28.20;62.70;;;;;;5029295;28;20411;-61
2023/09/05 06:56:13;;;;;;;37.92;9.63;;;28.20;62.40;;;;;;5026944;28;20516;-61
2023/09/05 06:58:40;;;;;;;43.15;10.25;;;28.20;61.90;;;;;;5021121;28;20068;-62
2023/09/05 07:01:06;;;;;;;44.50;10.77;;;28.20;62.00;;;;;;5030135;28;20082;-61
2023/09/05 07:03:33;;;;;;;38.88;10.75;;;28.10;63.10;;;;;;5025074;28;20060;-62
2023/09/05 07:06:03;;;;;;;47.17;10.40;;;28.10;62.90;;;;;;5027803;28;20070;-62
2023/09/05 07:08:30;;;;;;;44.22;10.65;;;28.00;63.70;;;;;;5020732;28;20064;-62
2023/09/05 07:10:57;;;;;;;37.97;9.90;;;27.90;64.20;;;;;;5025809;28;20073;-60
2023/09/05 07:13:24;;;;;;;39.90;10.57;;;27.80;63.60;;;;;;5028700;28;20069;-60
2023/09/05 07:15:51;;;;;;;49.08;11.13;;;27.90;64.30;;;;;;5029004;28;20063;-61
2023/09/05 07:18:18;;;;;;;45.50;10.30;;;27.90;64.10;;;;;;5030010;28;20055;-61
2023/09/05 07:20:44;;;;;;;41.17;9.55;;;27.90;64.10;;;;;;5029860;28;20078;-62
2023/09/05 07:23:11;;;;;;;50.92;10.57;;;27.90;64.30;;;;;;5023196;28;20061;-62
2023/09/05 07:25:39;;;;;;;42.90;10.55;;;27.80;65.10;;;;;;5044392;28;20079;-62
2023/09/05 07:28:06;;;;;;;39.13;10.13;;;27.80;65.40;;;;;;5025721;28;20085;-62
2023/09/05 07:30:34;;;;;;;38.05;10.23;;;27.60;66.70;;;;;;5029953;28;20058;-62
2023/09/05 07:33:00;;;;;;;33.70;10.73;;;27.60;65.80;;;;;;5024511;28;20536;-61
2023/09/05 07:35:26;;;;;;;33.83;9.52;;;27.60;66.20;;;;;;5029431;28;20079;-62
2023/09/05 07:37:53;;;;;;;36.33;10.40;;;27.60;66.20;;;;;;5020067;28;20089;-61
2023/09/05 07:40:23;;;;;;;38.45;10.00;;;27.50;67.20;;;;;;5018462;28;20067;-62
2023/09/05 07:42:50;;;;;;;25.55;9.43;;;27.50;67.70;;;;;;5011102;28;20066;-60
2023/09/05 07:45:17;;;;;;;34.10;9.65;;;27.50;68.90;;;;;;5016031;28;20086;-61
2023/09/05 07:47:44;;;;;;;29.45;8.70;;;27.50;68.20;;;;;;5017868;28;20077;-60
2023/09/05 07:50:10;;;;;;;31.52;10.15;;;27.50;68.10;;;;;;5018023;28;20113;-61
2023/09/05 07:52:37;;;;;;;34.90;10.60;;;27.40;68.90;;;;;;5018716;28;20062;-61
2023/09/05 07:55:03;;;;;;;30.40;9.60;;;27.40;69.80;;;;;;5014634;28;20055;-62
2023/09/05 07:57:30;;;;;;;26.58;9.30;;;27.40;70.30;;;;;;5012921;28;20058;-62
2023/09/05 07:59:56;;;;;;;24.77;8.70;;;27.40;70.20;;;;;;5014053;28;20075;-61
2023/09/05 08:02:23;;;;;;;21.67;8.60;;;27.40;70.20;;;;;;5013246;28;20057;-60
2023/09/05 08:04:49;;;;;;;27.83;7.95;;;27.40;70.60;;;;;;5021167;28;20429;-62
2023/09/05 08:07:16;;;;;;;19.48;7.30;;;27.40;71.10;;;;;;5014119;28;20645;-60
2023/09/05 08:09:43;;;;;;;22.10;6.40;;;27.30;71.60;;;;;;5012450;28;20082;-62
2023/09/05 08:12:09;;;;;;;17.83;7.35;;;27.30;71.50;;;;;;5013874;28;20058;-61
2023/09/05 08:14:36;;;;;;;18.13;7.05;;;27.30;71.70;;;;;;5012461;28;20094;-61
2023/09/05 08:17:02;;;;;;;20.00;7.38;;;27.30;72.00;;;;;;5017344;28;20133;-62
2023/09/05 08:19:28;;;;;;;16.45;6.57;;;27.30;72.10;;;;;;5016185;28;20156;-62
2023/09/05 08:21:55;;;;;;;20.05;7.13;;;27.20;72.10;;;;;;5017738;28;20067;-61
2023/09/05 08:24:21;;;;;;;18.42;7.38;;;27.20;73.10;;;;;;5014023;28;20147;-61
2023/09/05 08:26:48;;;;;;;25.00;6.85;;;27.20;73.70;;;;;;5020416;28;20093;-61
2023/09/05 08:29:14;;;;;;;23.38;7.07;;;27.10;73.80;;;;;;5021998;28;20053;-61
2023/09/05 08:31:41;;;;;;;16.83;6.82;;;27.10;74.00;;;;;;5021709;28;20047;-61
2023/09/05 08:34:08;;;;;;;17.10;6.38;;;27.10;74.10;;;;;;5021715;28;20131;-61
2023/09/05 08:36:34;;;;;;;19.05;6.47;;;27.10;73.60;;;;;;5022012;28;20153;-61
2023/09/05 08:39:01;;;;;;;18.15;6.88;;;27.00;73.90;;;;;;5018579;28;20461;-62
2023/09/05 08:41:29;;;;;;;20.75;6.32;;;27.00;74.70;;;;;;5021237;28;20062;-62
2023/09/05 08:43:57;;;;;;;14.40;5.97;;;27.00;73.40;;;;;;5034082;28;20075;-61
2023/09/05 08:46:24;;;;;;;10.30;5.57;;;27.00;73.00;;;;;;5019731;28;20840;-61
2023/09/05 08:48:51;;;;;;;13.32;5.38;;;27.10;73.20;;;;;;5013175;28;20171;-61
2023/09/05 08:51:19;;;;;;;13.45;5.43;;;27.00;73.40;;;;;;5023342;28;20418;-60
2023/09/05 08:53:53;;;;;;;12.40;4.95;;;27.00;73.40;;;;;;5011774;28;20081;-61
2023/09/05 08:56:20;;;;;;;13.38;5.22;;;27.00;72.60;;;;;;5013089;28;20101;-64
2023/09/05 08:58:48;;;;;;;10.93;5.13;;;27.00;72.50;;;;;;5012502;28;20058;-61
2023/09/05 09:01:14;;;;;;;14.57;4.90;;;26.90;72.20;;;;;;5012821;28;20053;-61
2023/09/05 09:03:41;;;;;;;12.23;4.80;;;26.90;73.00;;;;;;5013307;28;20123;-61
2023/09/05 09:06:07;;;;;;;9.90;4.82;;;26.90;73.20;;;;;;5012016;28;20537;-61
2023/09/05 09:08:44;;;;;;;13.60;4.65;;;26.80;72.50;;;;;;5013300;28;21776;-61
2023/09/05 09:11:11;;;;;;;12.82;4.82;;;26.80;72.90;;;;;;5012809;28;20066;-62
2023/09/05 09:13:38;;;;;;;8.02;4.35;;;26.80;72.80;;;;;;5011926;28;20054;-63
2023/09/05 09:16:06;;;;;;;13.75;4.60;;;26.80;72.40;;;;;;5011025;28;20142;-62
2023/09/05 09:18:33;;;;;;;9.15;4.68;;;26.80;72.20;;;;;;5010265;28;20088;-62
2023/09/05 09:21:05;;;;;;;12.07;4.82;;;26.90;72.00;;;;;;5013104;28;20058;-61
2023/09/05 09:23:35;;;;;;;15.80;4.75;;;26.90;71.50;;;;;;5014710;28;20059;-61
2023/09/05 09:26:03;;;;;;;8.43;4.60;;;26.80;71.60;;;;;;5012215;28;20534;-62
2023/09/05 09:28:34;;;;;;;11.77;5.18;;;26.80;71.80;;;;;;5012976;28;20065;-61
2023/09/05 09:31:01;;;;;;;12.45;4.50;;;26.80;70.70;;;;;;5015301;28;20064;-62
2023/09/05 09:33:29;;;;;;;12.68;4.63;;;26.90;70.80;;;;;;5012919;28;20079;-61
2023/09/05 09:36:03;;;;;;;9.43;4.95;;;26.80;70.90;;;;;;5012175;28;20079;-63
2023/09/05 09:38:29;;;;;;;17.95;4.85;;;26.80;70.40;;;;;;5010160;28;20479;-61
2023/09/05 09:40:57;;;;;;;9.93;4.60;;;26.90;70.10;;;;;;5011767;28;20081;-61
2023/09/05 09:43:23;;;;;;;10.55;4.93;;;26.80;70.50;;;;;;5011960;28;20072;-61
2023/09/05 09:45:51;;;;;;;7.13;4.32;;;26.80;70.30;;;;;;5011023;28;20059;-60
2023/09/05 09:48:21;;;;;;;11.20;5.40;;;26.80;70.00;;;;;;5012466;28;20102;-60
2023/09/05 09:50:49;;;;;;;10.93;4.57;;;26.80;70.20;;;;;;5012445;28;20065;-60
2023/09/05 09:53:18;;;;;;;9.98;4.45;;;26.80;69.80;;;;;;5011262;28;20133;-61
2023/09/05 09:55:45;;;;;;;9.23;4.43;;;26.80;69.60;;;;;;5013572;28;20051;-61
2023/09/05 09:58:14;;;;;;;11.77;4.35;;;26.80;70.10;;;;;;5011057;28;20224;-62
2023/09/05 10:00:45;;;;;;;7.32;4.22;;;26.70;71.30;;;;;;5011389;28;20055;-62
2023/09/05 10:03:13;;;;;;;15.68;4.70;;;26.70;70.10;;;;;;5019053;28;20459;-62
2023/09/05 10:05:42;;;;;;;17.13;4.70;;;26.70;70.30;;;;;;5014462;28;20577;-62
2023/09/05 10:08:12;;;;;;;11.63;4.78;;;26.80;70.60;;;;;;5015605;28;20174;-61
2023/09/05 10:10:42;;;;;;;9.77;4.65;;;26.70;70.30;;;;;;5011717;28;20454;-64
2023/09/05 10:13:09;;;;;;;13.90;5.47;;;26.70;71.50;;;;;;5016959;28;20076;-60
2023/09/05 10:15:44;;;;;;;13.90;4.70;;;26.70;72.00;;;;;;5012916;28;20080;-61
2023/09/05 10:18:12;;;;;;;10.95;4.30;;;26.60;71.10;;;;;;5012548;28;20149;-61
2023/09/05 10:20:40;;;;;;;11.30;5.05;;;26.60;71.30;;;;;;5011342;28;20081;-63
2023/09/05 10:23:07;;;;;;;13.38;4.53;;;26.60;71.50;;;;;;5012340;28;20079;-61
2023/09/05 10:25:38;;;;;;;8.38;4.57;;;26.50;72.00;;;;;;5013094;28;20085;-61
2023/09/05 10:28:05;;;;;;;9.52;4.35;;;26.50;72.00;;;;;;5013172;28;20643;-61
2023/09/05 10:30:43;;;;;;;14.93;4.65;;;26.50;72.40;;;;;;5008439;28;20080;-62
2023/09/05 10:33:10;;;;;;;7.82;4.78;;;26.40;72.40;;;;;;5013246;28;20069;-62
2023/09/05 10:35:36;;;;;;;10.73;5.40;;;26.40;72.50;;;;;;5014211;28;20075;-63
2023/09/05 10:38:05;;;;;;;9.88;5.22;;;26.30;72.60;;;;;;5014988;28;20080;-61
2023/09/05 10:40:36;;;;;;;14.45;5.60;;;26.30;72.50;;;;;;5015171;28;20111;-62
2023/09/05 10:43:15;;;;;;;13.32;5.32;;;26.30;73.10;;;;;;5011219;28;20085;-61
2023/09/05 10:45:41;;;;;;;11.07;5.35;;;26.30;73.10;;;;;;5014557;28;20075;-62
2023/09/05 10:48:09;;;;;;;15.80;5.25;;;26.20;73.30;;;;;;5011623;28;20227;-60
2023/09/05 10:51:07;;;;;;;12.07;5.35;;;26.20;73.40;;;;;;5013011;28;20117;-60
2023/09/05 10:53:38;;;;;;;12.18;4.95;;;26.10;73.60;;;;;;5016027;28;20150;-60
2023/09/05 10:56:05;;;;;;;15.13;4.93;;;26.10;74.00;;;;;;5015410;28;20349;-62
2023/09/05 10:58:46;;;;;;;13.77;5.38;;;26.10;74.80;;;;;;5015428;28;20121;-62
2023/09/05 11:01:31;;;;;;;13.15;5.68;;;26.00;75.60;;;;;;5016086;28;20074;-62
2023/09/05 11:04:26;;;;;;;9.02;5.03;;;25.90;74.90;;;;;;5014882;28;20088;-60
2023/09/05 11:07:04;;;;;;;11.30;5.13;;;25.90;76.30;;;;;;5014267;28;20088;-62
2023/09/05 11:09:49;;;;;;;16.98;6.00;;;25.80;77.90;;;;;;5015798;28;20077;-62
2023/09/05 11:12:17;;;;;;;18.52;6.03;;;25.80;77.40;;;;;;5014389;28;20528;-61
2023/09/05 11:14:44;;;;;;;12.48;5.28;;;25.70;76.40;;;;;;5017293;28;20071;-62
2023/09/05 11:17:17;;;;;;;19.70;5.93;;;25.60;77.50;;;;;;5017177;28;20084;-63
2023/09/05 11:19:47;;;;;;;17.58;5.53;;;25.60;78.40;;;;;;5013704;28;20074;-60
2023/09/05 11:22:21;;;;;;;15.00;5.47;;;25.50;78.70;;;;;;5019729;28;20077;-61
2023/09/05 11:25:01;;;;;;;17.45;5.97;;;25.50;77.90;;;;;;5016201;28;20484;-63
2023/09/05 11:27:32;;;;;;;15.25;5.78;;;25.50;78.70;;;;;;5013018;28;20190;-61
2023/09/05 11:30:01;;;;;;;14.20;5.50;;;25.50;79.00;;;;;;5013358;28;20087;-62
2023/09/05 11:32:36;;;;;;;18.70;6.68;;;25.50;78.00;;;;;;5013073;28;20093;-62
2023/09/05 11:35:04;;;;;;;14.82;5.70;;;25.50;77.60;;;;;;5014069;28;20071;-61
2023/09/05 11:37:31;;;;;;;18.52;6.10;;;25.50;78.60;;;;;;5014343;28;20081;-61
2023/09/05 11:40:12;;;;;;;21.23;7.00;;;25.50;80.30;;;;;;5012744;28;20182;-63
2023/09/05 11:42:39;;;;;;;18.63;7.18;;;25.40;80.10;;;;;;5017173;28;20084;-61
2023/09/05 11:45:16;;;;;;;22.08;8.05;;;25.40;79.70;;;;;;5011949;28;20087;-63
2023/09/05 11:47:43;;;;;;;22.25;8.65;;;25.40;79.30;;;;;;5015611;28;20241;-65
2023/09/05 11:50:10;;;;;;;30.48;9.68;;;25.30;80.60;;;;;;5012818;28;20144;-62
2023/09/05 11:52:40;;;;;;;33.35;11.20;;;25.10;80.90;;;;;;5015862;28;20432;-61
2023/09/05 11:55:08;;;;;;;34.50;10.85;;;25.10;81.60;;;;;;5012801;28;20084;-62
2023/09/05 11:57:37;;;;;;;45.90;12.15;;;25.10;82.90;;;;;;5017822;28;20075;-61
2023/09/05 12:00:16;;;;;;;28.67;10.85;;;25.10;82.00;;;;;;5013122;28;20139;-61
2023/09/05 12:02:44;;;;;;;33.47;11.43;;;25.20;82.90;;;;;;5018613;28;20084;-63
2023/09/05 12:05:12;;;;;;;52.45;12.30;;;25.20;83.00;;;;;;5017025;28;20451;-62
2023/09/05 12:07:38;;;;;;;43.83;12.52;;;25.20;82.00;;;;;;5012840;28;20090;-63
2023/09/05 12:10:05;;;;;;;29.95;11.68;;;25.30;82.40;;;;;;5014207;28;20576;-61
2023/09/05 12:12:32;;;;;;;32.90;12.27;;;25.30;83.70;;;;;;5014312;28;20452;-63
2023/09/05 12:15:00;;;;;;;47.67;13.90;;;25.20;82.80;;;;;;5013744;28;20579;-62
2023/09/05 12:17:27;;;;;;;45.80;13.07;;;25.20;82.70;;;;;;5014310;28;20229;-63
2023/09/05 12:19:55;;;;;;;41.88;13.52;;;25.20;82.80;;;;;;5015284;28;20084;-63
2023/09/05 12:22:29;;;;;;;40.50;13.20;;;25.10;83.40;;;;;;5011106;28;20135;-63
2023/09/05 12:25:08;;;;;;;43.33;15.18;;;25.10;85.40;;;;;;5012532;28;20138;-62
2023/09/05 12:27:35;;;;;;;54.83;15.85;;;25.00;85.00;;;;;;5016800;28;20190;-63
2023/09/05 12:30:01;;;;;;;52.80;17.23;;;24.90;85.70;;;;;;5010842;28;20084;-64
2023/09/05 12:32:27;;;;;;;44.25;16.58;;;24.90;85.10;;;;;;5010992;28;20076;-61
2023/09/05 12:34:54;;;;;;;53.90;17.85;;;24.90;85.00;;;;;;5011294;28;20130;-61
2023/09/05 12:37:20;;;;;;;58.42;17.00;;;24.90;85.00;;;;;;5015695;28;20094;-63
2023/09/05 12:39:47;;;;;;;50.20;16.52;;;24.90;85.10;;;;;;5014982;28;20090;-63
2023/09/05 12:42:14;;;;;;;41.53;15.25;;;24.80;85.50;;;;;;5012855;28;20091;-63